Terminal Aerodrome Forecast
Issued by NWS Twin Cities, MN

Home | Current Version | Previous Version | Graphics & Text | Print | Product List | Glossary On
Versions: 1 2 3 4 5 6 7 8 9 10 11 12 13 14 15 16 17 18 19
000
FTUS43 KMPX 310524
TAFEAU
TAF
KEAU 310524Z 3106/0106 14004KT P6SM BKN025 BKN090
     FM311000 25005KT P6SM BKN025
     FM311400 35006KT P6SM OVC020
     FM311800 01007KT P6SM BKN025 BKN150
     FM010000 04008KT P6SM BKN025=

USA.gov is the U.S. government's official web portal to all federal, state and local government web resources and services.